Knoxville, IA

5:14 PM CDT on October 01, 2016 (GMT -0500)
Knoxville Municipal

Weather History for KOXV - February, 2014

Change the Weather History Date:

Monday, February 10, 2014

  Actual Average Record
Temperature  
Mean Temperature -4 °F -  
Max Temperature 5 °F 34 °F 68 °F (1999)
Min Temperature -13 °F 17 °F -13 °F (2014)
Degree Days  
Heating Degree Days 69    
Moisture  
Dew Point -13 °F    
Average Humidity 65    
Maximum Humidity 77    
Minimum Humidity 51    
Precipitation  
Precipitation 0.00 in - - ()
Sea Level Pressure  
Sea Level Pressure 30.47 in    
Wind  
Wind Speed 7 mph (NW)    
Max Wind Speed 13 mph    
Max Gust Speed 13 mph    
Visibility 10 miles    
Events      
Averages and records for this station are not official NWS values.
T = Trace of Precipitation, MM = Missing Value Source: NWS Daily Summary

Daily Weather History Graph

Daily Weather History Graph

Search for Another Location

Airport or City:

Trip Planner

Search our weather history database for the weather conditions in past years. The results will help you decide how hot, cold, wet, or windy it might be!

Date:

Astronomy

Feb. 10, 2014 Rise Set
Actual Time 7:13 AM CST 5:40 PM CST
Civil Twilight 6:45 AM CST 6:08 PM CST
Nautical Twilight 6:12 AM CST 6:41 PM CST
Astronomical Twilight 5:40 AM CST 7:13 PM CST
Moon 2:08 PM CST (2/10) 4:08 AM CST (2/10)
Length of Visible Light 11h 23m
Length of Day
10h 26m
Waxing Gibbous, 85% of the Moon is Illuminated
Feb 10
Waxing Gibbous
Feb 14
Full
Feb 22
Last Quarter
Mar 1
New
Mar 8
First Quarter

Hourly Weather History & Observations

Time (CST) Temp. Windchill Dew Point Humidity Pressure Visibility Wind Dir Wind Speed Gust Speed Precip Events Conditions
12:15 AM -4.0 °F -17.8 °F -11.2 °F 71% 30.40 in 10.0 mi NW 6.9 mph - N/A   Clear
12:35 AM -4.0 °F -16.3 °F -11.2 °F 71% 30.41 in 10.0 mi WNW 5.8 mph - N/A   Clear
12:55 AM -5.8 °F -22.4 °F -13.0 °F 71% 30.41 in 10.0 mi WNW 9.2 mph - N/A   Clear
1:15 AM -7.6 °F -23.4 °F -13.0 °F 77% 30.41 in 10.0 mi WNW 8.1 mph - N/A   Clear
1:35 AM -9.4 °F -24.3 °F -14.8 °F 77% 30.41 in 10.0 mi WNW 6.9 mph - N/A   Clear
1:55 AM -5.8 °F -21.2 °F -11.2 °F 77% 30.42 in 10.0 mi WNW 8.1 mph - N/A   Clear
2:15 AM -7.6 °F -24.6 °F -14.8 °F 71% 30.43 in 10.0 mi WNW 9.2 mph - N/A   Clear
2:35 AM -7.6 °F -23.4 °F -14.8 °F 71% 30.43 in 10.0 mi WNW 8.1 mph - N/A   Clear
2:55 AM -7.6 °F -22.1 °F -13.0 °F 77% 30.43 in 10.0 mi WNW 6.9 mph - N/A   Clear
3:15 AM -7.6 °F -22.1 °F -14.8 °F 71% 30.44 in 10.0 mi WNW 6.9 mph - N/A   Clear
3:35 AM -7.6 °F -20.6 °F -14.8 °F 71% 30.44 in 10.0 mi WNW 5.8 mph - N/A   Clear
3:55 AM -9.4 °F -25.6 °F -16.6 °F 71% 30.45 in 10.0 mi West 8.1 mph - N/A   Clear
4:15 AM -7.6 °F -25.7 °F -14.8 °F 71% 30.46 in 10.0 mi West 10.4 mph - N/A   Clear
4:35 AM -7.6 °F -25.7 °F -14.8 °F 71% 30.47 in 10.0 mi West 10.4 mph - N/A   Clear
4:55 AM -9.4 °F -24.3 °F -16.6 °F 71% 30.47 in 10.0 mi West 6.9 mph - N/A   Clear
5:15 AM -9.4 °F -20.9 °F -14.8 °F 77% 30.47 in 10.0 mi WNW 4.6 mph - N/A   Clear
5:35 AM -9.4 °F -20.9 °F -16.6 °F 71% 30.46 in 10.0 mi NW 4.6 mph - N/A   Clear
5:55 AM -9.4 °F -22.7 °F -16.6 °F 71% 30.46 in 10.0 mi West 5.8 mph - N/A   Clear
6:15 AM -9.4 °F -24.3 °F -16.6 °F 71% 30.46 in 10.0 mi West 6.9 mph - N/A   Clear
6:35 AM -11.2 °F -27.8 °F -16.6 °F 77% 30.45 in 10.0 mi WNW 8.1 mph - N/A   Clear
6:55 AM -11.2 °F -27.8 °F -18.4 °F 70% 30.46 in 10.0 mi WNW 8.1 mph - N/A   Clear
7:15 AM -13.0 °F -31.3 °F -20.2 °F 70% 30.46 in 10.0 mi WNW 9.2 mph - N/A   Clear
7:35 AM -11.2 °F -27.8 °F -18.4 °F 70% 30.47 in 10.0 mi West 8.1 mph - N/A   Clear
7:55 AM -13.0 °F -30.0 °F -20.2 °F 70% 30.48 in 10.0 mi WSW 8.1 mph - N/A   Clear
8:15 AM -11.2 °F -26.4 °F -18.4 °F 70% 30.49 in 10.0 mi West 6.9 mph - N/A   Clear
8:35 AM -9.4 °F -25.6 °F -16.6 °F 71% 30.49 in 10.0 mi WNW 8.1 mph - N/A   Clear
8:55 AM -9.4 °F -25.6 °F -16.6 °F 71% 30.49 in 10.0 mi WNW 8.1 mph - N/A   Clear
9:15 AM -5.8 °F -21.2 °F -14.8 °F 65% 30.50 in 10.0 mi WNW 8.1 mph - N/A   Clear
9:35 AM -5.8 °F -23.4 °F -13.0 °F 71% 30.50 in 10.0 mi NW 10.4 mph - N/A   Clear
9:55 AM -4.0 °F -21.2 °F -11.2 °F 71% 30.50 in 10.0 mi NW 10.4 mph - N/A   Clear
10:15 AM -2.2 °F -20.7 °F -13.0 °F 60% 30.50 in 10.0 mi NW 12.7 mph - N/A   Clear
10:35 AM -2.2 °F -18.9 °F -13.0 °F 60% 30.50 in 10.0 mi NW 10.4 mph - N/A   Clear
10:55 AM -0.4 °F -16.7 °F -11.2 °F 60% 30.51 in 10.0 mi WNW 10.4 mph - N/A   Clear
11:15 AM -0.4 °F -15.7 °F -11.2 °F 60% 30.50 in 10.0 mi NW 9.2 mph - N/A   Clear
11:35 AM -0.4 °F -15.7 °F -11.2 °F 60% 30.51 in 10.0 mi WNW 9.2 mph - N/A   Clear
11:55 AM 1.4 °F -14.5 °F -11.2 °F 56% 30.50 in 10.0 mi NW 10.4 mph - N/A   Clear
12:15 PM 1.4 °F -12.5 °F -11.2 °F 56% 30.49 in 10.0 mi NNW 8.1 mph - N/A   Clear
12:35 PM 3.2 °F -11.3 °F -11.2 °F 51% 30.49 in 10.0 mi NW 9.2 mph - N/A   Clear
12:55 PM 3.2 °F -11.3 °F -11.2 °F 51% 30.47 in 10.0 mi NW 9.2 mph - N/A   Clear
1:15 PM 3.2 °F -10.3 °F -11.2 °F 51% 30.47 in 10.0 mi NW 8.1 mph - N/A   Clear
1:35 PM 3.2 °F -9.1 °F -9.4 °F 56% 30.46 in 10.0 mi NW 6.9 mph 12.7 mph N/A   Clear
1:55 PM 5.0 °F -8.1 °F -9.4 °F 52% 30.45 in 10.0 mi North 8.1 mph - N/A   Clear
2:15 PM 5.0 °F -9.1 °F -9.4 °F 52% 30.44 in 10.0 mi North 9.2 mph - N/A   Clear
2:35 PM 5.0 °F -10.0 °F -9.4 °F 52% 30.45 in 10.0 mi NNW 10.4 mph - N/A   Clear
3:35 PM 5.0 °F -10.8 °F -9.4 °F 52% 30.45 in 5.0 mi NNW 11.5 mph - N/A   Haze
3:55 PM 5.0 °F -9.1 °F -9.4 °F 52% 30.46 in 10.0 mi NW 9.2 mph - N/A   Clear
4:15 PM 5.0 °F -8.1 °F -9.4 °F 52% 30.46 in 10.0 mi NNW 8.1 mph - N/A   Clear
4:35 PM 3.2 °F -10.3 °F -9.4 °F 56% 30.47 in 10.0 mi NNW 8.1 mph - N/A   Clear
4:55 PM 3.2 °F -9.1 °F -9.4 °F 56% 30.48 in 10.0 mi NW 6.9 mph - N/A   Clear
5:15 PM 3.2 °F -9.1 °F -9.4 °F 56% 30.47 in 10.0 mi NNW 6.9 mph - N/A   Clear
5:35 PM 3.2 °F -7.8 °F -9.4 °F 56% 30.47 in 6.0 mi Variable 5.8 mph - N/A   Haze
5:55 PM 3.2 °F -6.2 °F -11.2 °F 51% 30.47 in 10.0 mi North 4.6 mph - N/A   Clear
6:15 PM 1.4 °F -8.3 °F -11.2 °F 56% 30.48 in 10.0 mi NNW 4.6 mph - N/A   Clear
6:35 PM 1.4 °F - -9.4 °F 61% 30.47 in 10.0 mi Calm Calm - N/A   Clear
6:55 PM 1.4 °F -8.3 °F -9.4 °F 61% 30.47 in 10.0 mi NNE 4.6 mph - N/A   Clear
7:15 PM 1.4 °F -9.9 °F -11.2 °F 56% 30.50 in 10.0 mi NW 5.8 mph - N/A   Partly Cloudy
7:35 PM -2.2 °F -12.5 °F -11.2 °F 66% 30.50 in 10.0 mi WNW 4.6 mph - N/A   Clear
7:55 PM -2.2 °F -12.5 °F -11.2 °F 66% 30.50 in 10.0 mi NNW 4.6 mph - N/A   Clear
8:15 PM -0.4 °F -10.4 °F -11.2 °F 60% 30.49 in 10.0 mi NNW 4.6 mph - N/A   Clear
8:35 PM -2.2 °F - -11.2 °F 66% 30.50 in 10.0 mi Calm Calm - N/A   Clear
8:55 PM -2.2 °F -10.4 °F -11.2 °F 66% 30.49 in 6.0 mi NNW 3.5 mph - N/A   Haze
9:15 PM -4.0 °F -14.6 °F -13.0 °F 65% 30.50 in 10.0 mi NW 4.6 mph - N/A   Clear
9:35 PM -2.2 °F -12.5 °F -11.2 °F 66% 30.49 in 10.0 mi NNW 4.6 mph - N/A   Clear
9:55 PM -2.2 °F -12.5 °F -9.4 °F 71% 30.48 in 6.0 mi North 4.6 mph - N/A   Haze
10:15 PM -2.2 °F -12.5 °F -11.2 °F 66% 30.48 in 10.0 mi NNE 4.6 mph - N/A   Clear
10:35 PM -2.2 °F -12.5 °F -11.2 °F 66% 30.48 in 10.0 mi NNE 4.6 mph - N/A   Mostly Cloudy
10:55 PM -2.2 °F -10.4 °F -11.2 °F 66% 30.48 in 10.0 mi North 3.5 mph - N/A   Scattered Clouds
11:15 PM -2.2 °F - -11.2 °F 66% 30.48 in 10.0 mi Calm Calm - N/A   Partly Cloudy
11:35 PM -5.8 °F -16.7 °F -13.0 °F 71% 30.49 in 10.0 mi WNW 4.6 mph - N/A   Scattered Clouds
11:55 PM -5.8 °F -16.7 °F -13.0 °F 71% 30.49 in 9.0 mi NW 4.6 mph - N/A   Mostly Cloudy